createdAt,value
2019-05-01T00:00:01.366Z,6.93
2019-05-01T00:02:58.438Z,6.97
2019-05-01T00:05:31.637Z,6.70
2019-05-01T00:08:00.681Z,8.50
2019-05-01T00:10:31.242Z,6.67
2019-05-01T00:13:03.533Z,6.00
2019-05-01T00:15:34.265Z,6.57
2019-05-01T00:18:03.257Z,7.30
2019-05-01T00:20:32.308Z,10.20
2019-05-01T00:23:10.148Z,7.17
2019-05-01T00:25:39.189Z,8.50
2019-05-01T00:28:08.581Z,10.60
2019-05-01T04:45:55.506Z,9.63
2019-05-01T04:51:08.798Z,8.93
2019-05-01T04:53:38.342Z,9.17
2019-05-01T04:56:07.645Z,13.30
2019-05-01T04:58:46.092Z,10.33
2019-05-01T05:01:15.319Z,8.37
2019-05-01T05:03:45.876Z,10.27
2019-05-01T05:06:17.145Z,10.10
2019-05-01T05:08:55.517Z,9.87
2019-05-01T05:11:27.549Z,10.77
2019-05-01T05:14:14.158Z,9.50
2019-05-01T05:17:01.913Z,8.40
2019-05-01T05:19:31.066Z,10.70
2019-05-01T05:22:02.650Z,8.57
2019-05-01T05:24:31.894Z,10.00
2019-05-01T05:27:14.906Z,9.27
2019-05-01T05:29:45.238Z,9.80
2019-05-01T05:32:16.105Z,9.23
2019-05-01T05:34:47.253Z,7.60
2019-05-01T05:37:30.613Z,9.43
2019-05-01T05:40:01.175Z,9.53
2019-05-01T05:42:30.851Z,9.27
2019-05-01T05:45:00.313Z,9.67
2019-05-01T05:47:42.040Z,8.13
2019-05-01T05:50:14.494Z,12.33
2019-05-01T05:52:51.610Z,8.67
2019-05-01T05:55:35.540Z,10.77
2019-05-01T06:01:30.420Z,9.67
2019-05-01T06:04:30.198Z,10.93
2019-05-01T06:07:39.258Z,10.37
2019-05-01T06:10:33.564Z,10.63
2019-05-01T06:13:21.959Z,10.87
2019-05-01T06:16:12.170Z,9.40
2019-05-01T06:22:10.342Z,9.93
2019-05-01T06:24:42.411Z,9.90
2019-05-01T06:27:13.658Z,10.67
2019-05-01T06:29:56.134Z,9.60
2019-05-01T06:32:28.838Z,10.30
2019-05-01T07:23:12.786Z,16.00
2019-05-01T07:32:06.335Z,17.03
2019-05-01T07:48:58.726Z,13.83
2019-05-01T07:52:26.005Z,18.07
2019-05-01T07:54:55.086Z,17.67
2019-05-01T07:57:41.392Z,21.20
2019-05-01T08:04:36.767Z,25.77
2019-05-01T08:08:51.091Z,23.43
2019-05-01T08:09:50.316Z,26.53
2019-05-01T08:16:58.729Z,29.13
2019-05-01T08:18:18.708Z,27.93
2019-05-01T08:24:45.693Z,27.83
2019-05-01T08:27:33.565Z,25.60
2019-05-01T08:44:30.801Z,26.00
2019-05-01T08:47:06.870Z,25.92
2019-05-01T08:52:42.715Z,24.52
2019-05-01T08:55:54.643Z,25.90
2019-05-01T08:58:23.915Z,24.37
2019-05-01T09:01:01.794Z,24.27
2019-05-01T09:03:30.918Z,23.22
2019-05-01T09:06:00.110Z,23.57
2019-05-01T09:08:32.091Z,24.40
2019-05-01T09:11:10.111Z,21.80
2019-05-01T09:13:39.519Z,25.80
2019-05-01T09:17:02.916Z,23.77
2019-05-01T09:22:17.484Z,26.05
2019-05-01T10:22:19.078Z,21.45
2019-05-01T10:25:08.523Z,22.17
2019-05-01T10:27:53.107Z,24.10
2019-05-01T10:34:02.969Z,23.10
2019-05-01T10:36:36.801Z,25.52
2019-05-01T10:39:10.485Z,23.80
2019-05-01T10:41:48.906Z,22.90
2019-05-01T10:44:18.021Z,26.07
2019-05-01T10:46:46.935Z,25.05
2019-05-01T10:49:15.958Z,22.67
2019-05-01T10:52:13.561Z,21.52
2019-05-01T10:54:32.426Z,19.92
2019-05-01T10:57:03.340Z,17.40
2019-05-01T10:59:32.419Z,16.67
2019-05-01T11:02:13.381Z,18.43
2019-05-01T11:04:45.436Z,16.60
2019-05-01T11:07:14.604Z,17.50
2019-05-01T11:09:45.507Z,18.93
2019-05-01T11:12:39.068Z,17.97
2019-05-01T11:15:00.834Z,17.37
2019-05-01T11:17:29.653Z,20.40
2019-05-01T11:20:00.459Z,20.53
2019-05-01T11:22:38.557Z,15.43
2019-05-01T11:25:08.931Z,13.80
2019-05-01T12:01:40.067Z,25.00
2019-05-01T12:04:09.635Z,27.03
2019-05-01T12:06:38.737Z,24.97
2019-05-01T12:09:09.568Z,26.67
2019-05-01T12:11:49.094Z,27.43
2019-05-01T12:14:18.756Z,28.10
2019-05-01T12:17:22.169Z,27.73
2019-05-01T12:19:52.951Z,27.03
2019-05-01T12:25:47.870Z,24.77
2019-05-01T12:28:16.929Z,27.60
2019-05-01T12:30:46.016Z,26.90
2019-05-01T13:02:51.831Z,25.10
2019-05-01T13:05:23.027Z,22.73
2019-05-01T13:07:54.234Z,24.30
2019-05-01T13:11:53.979Z,19.97
2019-05-01T13:13:12.764Z,21.80
2019-05-01T13:15:45.722Z,20.30
2019-05-01T13:18:23.880Z,22.37
2019-05-01T13:28:46.648Z,15.30
2019-05-01T13:34:28.538Z,17.17
2019-05-01T13:37:07.940Z,17.27
2019-05-01T13:39:50.109Z,20.27
2019-05-01T13:42:32.463Z,17.07
2019-05-01T13:45:04.704Z,20.57
2019-05-01T13:47:44.424Z,16.97
2019-05-01T13:50:25.864Z,17.13
2019-05-01T13:55:32.347Z,19.60
2019-05-01T13:58:04.605Z,17.83
2019-05-01T14:00:42.713Z,20.57
2019-05-01T18:07:55.254Z,10.67
2019-05-01T18:10:24.654Z,14.50
2019-05-01T18:12:55.902Z,9.50
2019-05-01T18:15:34.369Z,11.07
2019-05-01T18:18:03.541Z,11.60
2019-05-01T18:20:32.645Z,15.23
2019-05-01T18:23:35.973Z,10.23
2019-05-01T18:26:45.040Z,9.43
2019-05-01T18:29:23.487Z,10.53
2019-05-01T18:31:55.665Z,11.60
2019-05-01T18:34:24.772Z,9.70
